sensor_id;sensor_type;location;lat;lon;timestamp;pressure;altitude;pressure_sealevel;temperature;humidity
31595;BME280;18200;48.726;8.892;2022-10-04T00:01:10;97471.31;;;22.83;32.39
31595;BME280;18200;48.726;8.892;2022-10-04T00:05:15;97482.00;;;22.51;33.13
31595;BME280;18200;48.726;8.892;2022-10-04T00:09:21;97472.75;;;22.91;32.04
31595;BME280;18200;48.726;8.892;2022-10-04T00:13:24;97471.22;;;22.90;32.21
31595;BME280;18200;48.726;8.892;2022-10-04T00:17:27;97462.03;;;22.77;32.27
31595;BME280;18200;48.726;8.892;2022-10-04T00:25:58;97455.47;;;22.48;32.86
31595;BME280;18200;48.726;8.892;2022-10-04T00:42:16;97442.56;;;22.72;32.30
31595;BME280;18200;48.726;8.892;2022-10-04T00:46:21;97449.22;;;22.48;32.49
31595;BME280;18200;48.726;8.892;2022-10-04T00:54:48;97438.97;;;22.52;32.49
31595;BME280;18200;48.726;8.892;2022-10-04T01:03:17;97448.25;;;22.61;31.76
31595;BME280;18200;48.726;8.892;2022-10-04T01:07:26;97436.94;;;22.59;31.80
31595;BME280;18200;48.726;8.892;2022-10-04T01:11:30;97438.28;;;21.94;33.18
31595;BME280;18200;48.726;8.892;2022-10-04T01:15:53;97433.06;;;22.30;32.61
31595;BME280;18200;48.726;8.892;2022-10-04T01:19:56;97432.25;;;22.33;32.30
31595;BME280;18200;48.726;8.892;2022-10-04T01:27:56;97419.94;;;21.64;32.66
31595;BME280;18200;48.726;8.892;2022-10-04T01:31:59;97428.13;;;21.34;32.85
31595;BME280;18200;48.726;8.892;2022-10-04T01:35:59;97424.19;;;21.96;32.37
31595;BME280;18200;48.726;8.892;2022-10-04T01:40:00;97420.66;;;21.69;32.73
31595;BME280;18200;48.726;8.892;2022-10-04T01:44:03;97415.44;;;21.78;32.58
31595;BME280;18200;48.726;8.892;2022-10-04T01:48:12;97399.84;;;21.75;33.02
31595;BME280;18200;48.726;8.892;2022-10-04T01:52:20;97394.59;;;21.91;32.61
31595;BME280;18200;48.726;8.892;2022-10-04T01:56:26;97391.84;;;21.60;32.65
31595;BME280;18200;48.726;8.892;2022-10-04T02:00:30;97392.88;;;21.43;32.64
31595;BME280;18200;48.726;8.892;2022-10-04T02:04:37;97392.78;;;21.50;32.64
31595;BME280;18200;48.726;8.892;2022-10-04T02:08:45;97385.44;;;21.71;32.93
31595;BME280;18200;48.726;8.892;2022-10-04T02:12:50;97388.22;;;21.40;33.36
31595;BME280;18200;48.726;8.892;2022-10-04T02:16:52;97386.47;;;21.53;32.81
31595;BME280;18200;48.726;8.892;2022-10-04T02:20:53;97387.41;;;21.43;32.81
31595;BME280;18200;48.726;8.892;2022-10-04T02:24:55;97391.84;;;21.60;32.96
31595;BME280;18200;48.726;8.892;2022-10-04T02:28:57;97384.72;;;21.67;32.99
31595;BME280;18200;48.726;8.892;2022-10-04T02:32:58;97373.88;;;21.33;33.58
31595;BME280;18200;48.726;8.892;2022-10-04T02:37:03;97369.75;;;21.75;31.99
31595;BME280;18200;48.726;8.892;2022-10-04T02:41:11;97366.13;;;20.94;33.58
31595;BME280;18200;48.726;8.892;2022-10-04T02:45:36;97351.88;;;21.13;33.24
31595;BME280;18200;48.726;8.892;2022-10-04T02:49:47;97358.84;;;21.18;32.69
31595;BME280;18200;48.726;8.892;2022-10-04T02:53:58;97359.31;;;20.75;33.84
31595;BME280;18200;48.726;8.892;2022-10-04T02:58:00;97357.59;;;21.22;33.31
31595;BME280;18200;48.726;8.892;2022-10-04T03:02:01;97357.78;;;21.08;32.79
31595;BME280;18200;48.726;8.892;2022-10-04T03:06:15;97358.47;;;20.78;33.35
31595;BME280;18200;48.726;8.892;2022-10-04T03:10:17;97365.41;;;19.50;35.29
31595;BME280;18200;48.726;8.892;2022-10-04T03:14:22;97358.25;;;19.70;35.11
31595;BME280;18200;48.726;8.892;2022-10-04T03:18:24;97353.34;;;20.47;33.49
31595;BME280;18200;48.726;8.892;2022-10-04T03:22:24;97356.88;;;20.84;33.33
31595;BME280;18200;48.726;8.892;2022-10-04T03:26:31;97351.19;;;21.02;33.92
31595;BME280;18200;48.726;8.892;2022-10-04T03:30:36;97355.78;;;21.12;32.65
31595;BME280;18200;48.726;8.892;2022-10-04T03:34:37;97346.31;;;21.20;32.72
31595;BME280;18200;48.726;8.892;2022-10-04T03:38:39;97357.47;;;21.03;33.10
31595;BME280;18200;48.726;8.892;2022-10-04T03:42:39;97359.47;;;20.58;33.23
31595;BME280;18200;48.726;8.892;2022-10-04T03:46:42;97347.13;;;21.17;33.23
31595;BME280;18200;48.726;8.892;2022-10-04T03:50:47;97338.66;;;20.37;34.40
31595;BME280;18200;48.726;8.892;2022-10-04T03:54:51;97329.94;;;20.05;34.00
31595;BME280;18200;48.726;8.892;2022-10-04T03:58:54;97332.47;;;20.67;33.27
31595;BME280;18200;48.726;8.892;2022-10-04T04:02:57;97341.16;;;20.92;33.27
31595;BME280;18200;48.726;8.892;2022-10-04T04:07:04;97332.53;;;20.97;32.94
31595;BME280;18200;48.726;8.892;2022-10-04T04:11:13;97326.16;;;20.73;33.49
31595;BME280;18200;48.726;8.892;2022-10-04T04:15:18;97338.78;;;20.94;33.27
31595;BME280;18200;48.726;8.892;2022-10-04T04:19:21;97338.25;;;21.10;32.66
31595;BME280;18200;48.726;8.892;2022-10-04T04:23:29;97331.28;;;21.35;32.43
31595;BME280;18200;48.726;8.892;2022-10-04T04:27:35;97328.41;;;20.82;33.25
31595;BME280;18200;48.726;8.892;2022-10-04T04:32:01;97323.72;;;21.16;33.13
31595;BME280;18200;48.726;8.892;2022-10-04T04:36:06;97335.44;;;21.17;32.69
31595;BME280;18200;48.726;8.892;2022-10-04T04:40:22;97332.81;;;21.06;33.25
31595;BME280;18200;48.726;8.892;2022-10-04T04:44:28;97321.25;;;21.25;32.43
31595;BME280;18200;48.726;8.892;2022-10-04T04:48:31;97335.03;;;20.81;33.25
31595;BME280;18200;48.726;8.892;2022-10-04T04:52:35;97332.53;;;20.97;32.17
31595;BME280;18200;48.726;8.892;2022-10-04T04:56:36;97337.22;;;20.97;32.52
31595;BME280;18200;48.726;8.892;2022-10-04T05:00:38;97331.56;;;21.14;32.80
31595;BME280;18200;48.726;8.892;2022-10-04T05:04:39;97336.56;;;20.85;32.95
31595;BME280;18200;48.726;8.892;2022-10-04T05:08:48;97344.03;;;21.15;33.07
31595;BME280;18200;48.726;8.892;2022-10-04T05:12:52;97336.88;;;21.25;32.79
31595;BME280;18200;48.726;8.892;2022-10-04T05:16:54;97342.22;;;21.35;32.66
31595;BME280;18200;48.726;8.892;2022-10-04T05:20:57;97344.97;;;21.02;32.44
31595;BME280;18200;48.726;8.892;2022-10-04T05:25:08;97347.13;;;20.83;32.98
31595;BME280;18200;48.726;8.892;2022-10-04T05:29:14;97345.66;;;21.09;32.63
31595;BME280;18200;48.726;8.892;2022-10-04T05:33:36;97344.94;;;21.05;32.10
31595;BME280;18200;48.726;8.892;2022-10-04T05:41:55;97350.44;;;20.98;32.86
31595;BME280;18200;48.726;8.892;2022-10-04T05:46:17;97353.66;;;20.93;33.21
31595;BME280;18200;48.726;8.892;2022-10-04T05:50:29;97359.47;;;20.58;33.60
31595;BME280;18200;48.726;8.892;2022-10-04T05:54:33;97348.50;;;20.99;33.00
31595;BME280;18200;48.726;8.892;2022-10-04T05:58:44;97351.91;;;21.10;33.10
31595;BME280;18200;48.726;8.892;2022-10-04T06:06:58;97356.59;;;21.09;32.95
31595;BME280;18200;48.726;8.892;2022-10-04T06:23:33;97374.28;;;21.31;32.35
31595;BME280;18200;48.726;8.892;2022-10-04T06:28:23;97382.94;;;21.26;33.13
31595;BME280;18200;48.726;8.892;2022-10-04T06:36:43;97375.53;;;21.53;33.05
31595;BME280;18200;48.726;8.892;2022-10-04T06:49:40;97366.88;;;21.58;33.24
31595;BME280;18200;48.726;8.892;2022-10-04T06:54:06;97359.47;;;21.86;33.43
31595;BME280;18200;48.726;8.892;2022-10-04T07:02:51;97363.00;;;21.29;34.42
31595;BME280;18200;48.726;8.892;2022-10-04T07:11:31;97353.19;;;21.89;33.97
31595;BME280;18200;48.726;8.892;2022-10-04T07:20:20;97348.28;;;22.69;33.24
31595;BME280;18200;48.726;8.892;2022-10-04T07:24:43;97347.66;;;22.81;32.65
31595;BME280;18200;48.726;8.892;2022-10-04T07:28:47;97358.00;;;22.74;33.81
31595;BME280;18200;48.726;8.892;2022-10-04T07:33:13;97359.81;;;23.00;33.10
31595;BME280;18200;48.726;8.892;2022-10-04T07:37:16;97375.00;;;22.65;34.61
31595;BME280;18200;48.726;8.892;2022-10-04T07:41:22;97383.56;;;22.44;35.28
31595;BME280;18200;48.726;8.892;2022-10-04T07:45:27;97381.97;;;23.29;33.92
31595;BME280;18200;48.726;8.892;2022-10-04T07:49:36;97383.06;;;22.72;35.00
31595;BME280;18200;48.726;8.892;2022-10-04T07:58:13;97393.59;;;23.72;34.48
31595;BME280;18200;48.726;8.892;2022-10-04T08:11:23;97385.78;;;24.06;34.71
31595;BME280;18200;48.726;8.892;2022-10-04T08:15:37;97379.94;;;24.20;34.28
31595;BME280;18200;48.726;8.892;2022-10-04T08:19:44;97372.69;;;23.94;35.43
31595;BME280;18200;48.726;8.892;2022-10-04T08:28:07;97371.09;;;24.90;33.89
31595;BME280;18200;48.726;8.892;2022-10-04T08:32:49;97362.28;;;25.52;33.66
31595;BME280;18200;48.726;8.892;2022-10-04T08:37:07;97360.97;;;25.69;33.31
31595;BME280;18200;48.726;8.892;2022-10-04T08:54:58;97372.16;;;26.84;33.28
31595;BME280;18200;48.726;8.892;2022-10-04T08:59:47;97369.47;;;27.58;32.05
31595;BME280;18200;48.726;8.892;2022-10-04T09:21:51;97383.31;;;29.56;29.72
31595;BME280;18200;48.726;8.892;2022-10-04T09:26:17;97381.78;;;30.06;28.77
31595;BME280;18200;48.726;8.892;2022-10-04T09:30:21;97369.81;;;30.56;28.59
31595;BME280;18200;48.726;8.892;2022-10-04T09:47:54;97356.59;;;30.18;28.81
31595;BME280;18200;48.726;8.892;2022-10-04T10:00:57;97354.44;;;30.93;27.52
31595;BME280;18200;48.726;8.892;2022-10-04T10:14:02;97363.47;;;32.05;25.51
31595;BME280;18200;48.726;8.892;2022-10-04T10:18:30;97364.97;;;31.04;26.71
31595;BME280;18200;48.726;8.892;2022-10-04T10:23:05;97372.44;;;32.69;25.51
31595;BME280;18200;48.726;8.892;2022-10-04T10:27:35;97366.16;;;31.99;25.57
31595;BME280;18200;48.726;8.892;2022-10-04T10:32:02;97357.25;;;32.90;23.98
31595;BME280;18200;48.726;8.892;2022-10-04T10:44:20;97355.56;;;32.18;25.15
31595;BME280;18200;48.726;8.892;2022-10-04T10:53:13;97364.94;;;32.21;24.71
31595;BME280;18200;48.726;8.892;2022-10-04T11:19:25;97339.91;;;34.57;21.45
31595;BME280;18200;48.726;8.892;2022-10-04T11:24:05;97342.88;;;32.72;23.15
31595;BME280;18200;48.726;8.892;2022-10-04T11:28:26;97337.44;;;32.43;24.68
31595;BME280;18200;48.726;8.892;2022-10-04T11:41:37;97331.00;;;35.29;21.66
31595;BME280;18200;48.726;8.892;2022-10-04T11:58:51;97304.31;;;35.94;20.77
31595;BME280;18200;48.726;8.892;2022-10-04T12:12:01;97302.09;;;37.13;19.44
31595;BME280;18200;48.726;8.892;2022-10-04T12:16:41;97299.22;;;37.24;18.95
31595;BME280;18200;48.726;8.892;2022-10-04T12:26:16;97302.78;;;37.60;19.10
31595;BME280;18200;48.726;8.892;2022-10-04T12:39:33;97292.22;;;36.54;19.99
31595;BME280;18200;48.726;8.892;2022-10-04T13:02:27;97277.41;;;38.00;18.41
31595;BME280;18200;48.726;8.892;2022-10-04T13:11:47;97272.19;;;36.28;20.45
31595;BME280;18200;48.726;8.892;2022-10-04T13:20:33;97271.22;;;38.08;18.63
31595;BME280;18200;48.726;8.892;2022-10-04T13:24:43;97277.50;;;38.38;18.62
31595;BME280;18200;48.726;8.892;2022-10-04T13:29:02;97274.84;;;39.38;16.85
31595;BME280;18200;48.726;8.892;2022-10-04T13:45:34;97271.91;;;37.30;18.59
31595;BME280;18200;48.726;8.892;2022-10-04T13:54:05;97267.84;;;37.90;18.62
31595;BME280;18200;48.726;8.892;2022-10-04T13:58:49;97279.03;;;36.96;18.24
31595;BME280;18200;48.726;8.892;2022-10-04T14:12:29;97270.88;;;37.92;18.86
31595;BME280;18200;48.726;8.892;2022-10-04T14:17:02;97260.16;;;37.37;19.01
31595;BME280;18200;48.726;8.892;2022-10-04T14:30:01;97243.22;;;39.19;18.29
31595;BME280;18200;48.726;8.892;2022-10-04T14:34:26;97245.69;;;37.57;19.37
31595;BME280;18200;48.726;8.892;2022-10-04T14:55:29;97249.38;;;38.25;19.33
31595;BME280;18200;48.726;8.892;2022-10-04T15:04:20;97239.72;;;38.39;19.53
31595;BME280;18200;48.726;8.892;2022-10-04T15:12:54;97224.81;;;39.00;18.91
31595;BME280;18200;48.726;8.892;2022-10-04T15:16:59;97223.81;;;39.47;18.76
31595;BME280;18200;48.726;8.892;2022-10-04T15:21:25;97219.22;;;39.18;19.23
31595;BME280;18200;48.726;8.892;2022-10-04T15:25:40;97217.81;;;40.22;19.09
31595;BME280;18200;48.726;8.892;2022-10-04T15:29:57;97212.19;;;39.06;19.50
31595;BME280;18200;48.726;8.892;2022-10-04T15:38:46;97210.38;;;40.71;18.41
31595;BME280;18200;48.726;8.892;2022-10-04T16:00:54;97216.94;;;39.88;18.76
31595;BME280;18200;48.726;8.892;2022-10-04T16:05:21;97229.19;;;40.89;18.76
31595;BME280;18200;48.726;8.892;2022-10-04T16:09:37;97224.31;;;40.43;18.57
31595;BME280;18200;48.726;8.892;2022-10-04T16:17:57;97203.59;;;38.30;21.02
31595;BME280;18200;48.726;8.892;2022-10-04T16:22:17;97199.03;;;39.46;20.17
31595;BME280;18200;48.726;8.892;2022-10-04T16:30:29;97208.22;;;36.54;22.62
31595;BME280;18200;48.726;8.892;2022-10-04T16:38:51;97204.22;;;35.04;24.45
31595;BME280;18200;48.726;8.892;2022-10-04T16:47:22;97206.66;;;32.63;29.00
31595;BME280;18200;48.726;8.892;2022-10-04T17:00:37;97229.31;;;34.87;25.86
31595;BME280;18200;48.726;8.892;2022-10-04T17:04:45;97242.38;;;34.37;26.23
31595;BME280;18200;48.726;8.892;2022-10-04T17:09:28;97236.19;;;34.11;27.14
31595;BME280;18200;48.726;8.892;2022-10-04T17:13:52;97243.66;;;32.69;28.51
31595;BME280;18200;48.726;8.892;2022-10-04T17:18:02;97231.72;;;32.23;29.66
31595;BME280;18200;48.726;8.892;2022-10-04T17:30:59;97230.81;;;32.31;29.09
31595;BME280;18200;48.726;8.892;2022-10-04T17:39:47;97202.41;;;30.74;30.79
31595;BME280;18200;48.726;8.892;2022-10-04T17:48:07;97201.66;;;31.86;29.54
31595;BME280;18200;48.726;8.892;2022-10-04T17:52:33;97194.81;;;31.47;29.34
31595;BME280;18200;48.726;8.892;2022-10-04T17:57:12;97207.97;;;31.32;29.97
31595;BME280;18200;48.726;8.892;2022-10-04T18:01:33;97213.13;;;30.81;30.33
31595;BME280;18200;48.726;8.892;2022-10-04T18:05:48;97205.75;;;30.25;30.93
31595;BME280;18200;48.726;8.892;2022-10-04T18:09:53;97205.38;;;29.37;33.29
31595;BME280;18200;48.726;8.892;2022-10-04T18:14:02;97206.16;;;29.38;33.56
31595;BME280;18200;48.726;8.892;2022-10-04T18:18:10;97198.28;;;29.69;32.46
31595;BME280;18200;48.726;8.892;2022-10-04T18:22:18;97212.56;;;29.44;32.73
31595;BME280;18200;48.726;8.892;2022-10-04T18:26:20;97209.50;;;29.42;32.91
31595;BME280;18200;48.726;8.892;2022-10-04T18:30:20;97213.00;;;29.84;32.33
31595;BME280;18200;48.726;8.892;2022-10-04T18:34:28;97219.41;;;29.34;32.68
31595;BME280;18200;48.726;8.892;2022-10-04T18:38:32;97220.06;;;29.10;33.08
31595;BME280;18200;48.726;8.892;2022-10-04T18:42:34;97227.72;;;29.34;32.71
31595;BME280;18200;48.726;8.892;2022-10-04T18:46:38;97237.34;;;29.71;31.80
31595;BME280;18200;48.726;8.892;2022-10-04T18:50:40;97233.09;;;29.61;31.80
31595;BME280;18200;48.726;8.892;2022-10-04T18:58:57;97232.69;;;29.86;31.32
31595;BME280;18200;48.726;8.892;2022-10-04T19:03:36;97238.50;;;29.64;30.71
31595;BME280;18200;48.726;8.892;2022-10-04T19:07:48;97241.75;;;27.76;33.76
31595;BME280;18200;48.726;8.892;2022-10-04T19:12:07;97246.88;;;28.14;32.84
31595;BME280;18200;48.726;8.892;2022-10-04T19:16:19;97254.88;;;28.93;32.57
31595;BME280;18200;48.726;8.892;2022-10-04T19:29:34;97248.94;;;27.74;33.78
31595;BME280;18200;48.726;8.892;2022-10-04T19:33:49;97252.44;;;28.32;33.84
31595;BME280;18200;48.726;8.892;2022-10-04T19:38:39;97257.03;;;28.71;32.43
31595;BME280;18200;48.726;8.892;2022-10-04T19:42:14;97259.63;;;28.20;33.33
31595;BME280;18200;48.726;8.892;2022-10-04T19:46:36;97269.34;;;28.34;32.31
31595;BME280;18200;48.726;8.892;2022-10-04T19:50:47;97274.88;;;28.34;32.95
31595;BME280;18200;48.726;8.892;2022-10-04T19:54:53;97275.31;;;28.51;31.79
31595;BME280;18200;48.726;8.892;2022-10-04T20:03:09;97286.69;;;28.34;32.33
31595;BME280;18200;48.726;8.892;2022-10-04T20:11:45;97292.78;;;28.02;33.37
31595;BME280;18200;48.726;8.892;2022-10-04T20:15:58;97293.28;;;28.28;33.22
31595;BME280;18200;48.726;8.892;2022-10-04T20:19:59;97301.22;;;28.08;32.69
31595;BME280;18200;48.726;8.892;2022-10-04T20:24:00;97309.59;;;27.46;33.49
31595;BME280;18200;48.726;8.892;2022-10-04T20:28:01;97305.75;;;27.93;32.63
31595;BME280;18200;48.726;8.892;2022-10-04T20:32:09;97313.41;;;27.18;33.31
31595;BME280;18200;48.726;8.892;2022-10-04T20:44:49;97329.38;;;26.80;33.98
31595;BME280;18200;48.726;8.892;2022-10-04T20:48:53;97330.16;;;26.80;33.57
31595;BME280;18200;48.726;8.892;2022-10-04T20:52:57;97333.66;;;27.03;32.96
31595;BME280;18200;48.726;8.892;2022-10-04T20:56:58;97321.84;;;26.59;33.30
31595;BME280;18200;48.726;8.892;2022-10-04T21:01:01;97332.38;;;26.73;33.91
31595;BME280;18200;48.726;8.892;2022-10-04T21:05:14;97344.69;;;27.24;33.14
31595;BME280;18200;48.726;8.892;2022-10-04T21:09:17;97337.03;;;27.19;32.98
31595;BME280;18200;48.726;8.892;2022-10-04T21:17:42;97342.00;;;27.12;32.61
31595;BME280;18200;48.726;8.892;2022-10-04T21:21:49;97348.31;;;27.12;32.24
31595;BME280;18200;48.726;8.892;2022-10-04T21:25:50;97354.22;;;27.23;32.34
31595;BME280;18200;48.726;8.892;2022-10-04T21:29:50;97346.59;;;26.71;31.69
31595;BME280;18200;48.726;8.892;2022-10-04T21:33:53;97349.22;;;26.87;32.06
31595;BME280;18200;48.726;8.892;2022-10-04T21:37:53;97338.88;;;26.66;32.08
31595;BME280;18200;48.726;8.892;2022-10-04T21:41:54;97333.16;;;26.73;32.20
31595;BME280;18200;48.726;8.892;2022-10-04T21:45:54;97348.03;;;26.76;32.12
31595;BME280;18200;48.726;8.892;2022-10-04T21:49:55;97344.84;;;26.31;32.63
31595;BME280;18200;48.726;8.892;2022-10-04T21:53:55;97345.19;;;26.20;32.71
31595;BME280;18200;48.726;8.892;2022-10-04T21:57:55;97356.56;;;26.09;32.43
31595;BME280;18200;48.726;8.892;2022-10-04T22:01:56;97353.63;;;26.51;32.25
31595;BME280;18200;48.726;8.892;2022-10-04T22:05:56;97356.69;;;26.53;32.32
31595;BME280;18200;48.726;8.892;2022-10-04T22:09:56;97354.56;;;26.23;32.39
31595;BME280;18200;48.726;8.892;2022-10-04T22:13:57;97350.38;;;26.05;32.91
31595;BME280;18200;48.726;8.892;2022-10-04T22:17:57;97348.22;;;26.47;32.75
31595;BME280;18200;48.726;8.892;2022-10-04T22:21:58;97345.34;;;26.51;32.08
31595;BME280;18200;48.726;8.892;2022-10-04T22:25:58;97338.06;;;25.97;33.16
31595;BME280;18200;48.726;8.892;2022-10-04T22:29:59;97327.81;;;26.10;33.00
31595;BME280;18200;48.726;8.892;2022-10-04T22:33:59;97321.28;;;26.30;32.95
31595;BME280;18200;48.726;8.892;2022-10-04T22:38:00;97320.44;;;25.57;33.21
31595;BME280;18200;48.726;8.892;2022-10-04T22:42:00;97304.34;;;25.93;33.17
31595;BME280;18200;48.726;8.892;2022-10-04T22:46:01;97297.78;;;25.53;34.02
31595;BME280;18200;48.726;8.892;2022-10-04T22:50:05;97295.13;;;25.87;33.39
31595;BME280;18200;48.726;8.892;2022-10-04T22:54:21;97292.16;;;25.57;33.03
31595;BME280;18200;48.726;8.892;2022-10-04T22:58:23;97300.28;;;25.73;33.18
31595;BME280;18200;48.726;8.892;2022-10-04T23:02:27;97303.28;;;25.78;32.78
31595;BME280;18200;48.726;8.892;2022-10-04T23:06:28;97306.91;;;25.75;32.61
31595;BME280;18200;48.726;8.892;2022-10-04T23:10:28;97300.41;;;25.69;32.14
31595;BME280;18200;48.726;8.892;2022-10-04T23:14:29;97308.94;;;24.80;33.48
31595;BME280;18200;48.726;8.892;2022-10-04T23:18:29;97299.63;;;24.16;34.71
31595;BME280;18200;48.726;8.892;2022-10-04T23:22:31;97295.94;;;25.09;33.67
31595;BME280;18200;48.726;8.892;2022-10-04T23:26:37;97295.28;;;25.30;32.84
31595;BME280;18200;48.726;8.892;2022-10-04T23:30:38;97286.25;;;25.04;32.89
31595;BME280;18200;48.726;8.892;2022-10-04T23:34:41;97297.06;;;25.24;32.90
31595;BME280;18200;48.726;8.892;2022-10-04T23:38:48;97283.53;;;24.76;33.35
31595;BME280;18200;48.726;8.892;2022-10-04T23:42:51;97278.25;;;25.35;32.36
31595;BME280;18200;48.726;8.892;2022-10-04T23:46:52;97275.38;;;25.26;32.10
31595;BME280;18200;48.726;8.892;2022-10-04T23:50:55;97271.97;;;25.22;32.08
31595;BME280;18200;48.726;8.892;2022-10-04T23:54:56;97273.75;;;24.75;33.51
31595;BME280;18200;48.726;8.892;2022-10-04T23:58:57;97281.59;;;24.15;33.52
